2e0sey-13 Saltney UK current weather conditions

sailwx.info

Wind from 225 at 0 knots gusting 2

Last reported at 2019-Sep-21 06:01 UTC.
Time now 2019-Sep-21 06:45 UTC

Location: N 53°10' W 002°56'.
View on Google Maps.

See reports from other nearby stations

  
Tides and Currents Weather Stations Pressure Air Temp Water Temp Dewpoint Dewpoint Depression Visibility Wind Speed Wind Dir Waves Ship Positions
date/time (UTC)wind fromknots sea level pressurealtimeterstation pressurevisibilityair tempwater tempwave heightnotes
2019-Sep-21 06:01 225 0 gusting 2
2019-Sep-21 05:51 225 1 gusting 2
2019-Sep-21 05:41 208 0 gusting 3
2019-Sep-21 05:30 215 0 gusting 2
2019-Sep-21 05:20 165 0 gusting 3
2019-Sep-21 05:10 172 0 gusting 3
2019-Sep-21 05:00 157 1 gusting 4
2019-Sep-21 04:50 153 0 gusting 1
2019-Sep-21 04:40 180
2019-Sep-21 04:30
2019-Sep-21 04:20
2019-Sep-21 04:10 146 0 gusting 1
2019-Sep-21 04:00 225
2019-Sep-21 03:51
2019-Sep-21 03:41 180
2019-Sep-21 03:31
2019-Sep-21 03:20
2019-Sep-21 03:10
2019-Sep-21 03:00 180
2019-Sep-21 02:50 180
2019-Sep-21 02:40
2019-Sep-21 02:30
2019-Sep-21 02:20
2019-Sep-21 02:10
2019-Sep-21 02:00
2019-Sep-21 01:50
2019-Sep-21 01:40 135
2019-Sep-21 01:31 145 0 gusting 1
2019-Sep-21 01:21 163 0 gusting 3
2019-Sep-21 01:11 135 1 gusting 3
2019-Sep-21 01:01 135 1 gusting 3
2019-Sep-21 00:50 145 1 gusting 3
2019-Sep-21 00:40 151 0 gusting 2
2019-Sep-21 00:30 166 0 gusting 3
2019-Sep-21 00:20 163 1 gusting 4
2019-Sep-21 00:10 135 3 gusting 6
2019-Sep-21 00:00 155 3 gusting 6
2019-Sep-20 23:50 135 4 gusting 6
2019-Sep-20 23:40 164 4 gusting 8
2019-Sep-20 23:30 150 3 gusting 8
2019-Sep-20 23:20 170 5 gusting 11
2019-Sep-20 23:11 135 5 gusting 9
2019-Sep-20 23:01 094 5 gusting 9
2019-Sep-20 22:51 142 4 gusting 9
2019-Sep-20 22:41 149 5 gusting 10
2019-Sep-20 22:30 157 3 gusting 9
2019-Sep-20 22:20 162 4 gusting 11
2019-Sep-20 22:10 147 4 gusting 8
2019-Sep-20 22:00 175 6 gusting 11
2019-Sep-20 21:50 141 3 gusting 6
2019-Sep-20 21:40 161 3 gusting 8
2019-Sep-20 21:30 148 4 gusting 8
2019-Sep-20 21:20 162 3 gusting 6
2019-Sep-20 21:10 148 3 gusting 8
2019-Sep-20 21:01 139 3 gusting 6
2019-Sep-20 20:51 143 3 gusting 7
2019-Sep-20 20:41 163 3 gusting 9
2019-Sep-20 20:31 140 4 gusting 9
2019-Sep-20 20:20 135 3 gusting 6
2019-Sep-20 20:10 128 4 gusting 9
2019-Sep-20 20:00 135 2 gusting 6
2019-Sep-20 19:50 135 2 gusting 7
2019-Sep-20 19:40 135 2 gusting 9
2019-Sep-20 19:30 135 2 gusting 8
2019-Sep-20 19:20 135 2 gusting 6
2019-Sep-20 19:10 135 1 gusting 6
2019-Sep-20 19:00 160 2 gusting 6
2019-Sep-20 18:50 135 2 gusting 6
2019-Sep-20 18:41 135 1 gusting 6
2019-Sep-20 18:31 135 2 gusting 4
2019-Sep-20 18:21 135 2 gusting 6
2019-Sep-20 18:10 135 2 gusting 6
2019-Sep-20 18:00 135 2 gusting 5
2019-Sep-20 17:50 126 2 gusting 6
2019-Sep-20 17:40 135 2 gusting 6
2019-Sep-20 17:30 135 2 gusting 6
2019-Sep-20 17:20 135 2 gusting 7
2019-Sep-20 17:10 135 3 gusting 9
2019-Sep-20 17:00 164 2 gusting 6
2019-Sep-20 16:50 143 5 gusting 9
2019-Sep-20 16:40 143 3 gusting 6
2019-Sep-20 16:31 146 3 gusting 6
2019-Sep-20 16:21 164 4 gusting 10
2019-Sep-20 16:11 135 3 gusting 9
2019-Sep-20 16:01 135 6 gusting 11
2019-Sep-20 15:50 129 5 gusting 12
2019-Sep-20 15:40 135 5 gusting 9
2019-Sep-20 15:30 135 4 gusting 12
2019-Sep-20 15:20 172 4 gusting 12
2019-Sep-20 15:10 141 4 gusting 10
2019-Sep-20 15:00 153 5 gusting 12
2019-Sep-20 14:50 135 4 gusting 8
2019-Sep-20 14:40 164 4 gusting 8
2019-Sep-20 14:30 139 4 gusting 9
2019-Sep-20 14:20 149 4 gusting 8
2019-Sep-20 14:11 135 5 gusting 9
2019-Sep-20 14:01 135 4 gusting 9
2019-Sep-20 13:51 135 3 gusting 8
2019-Sep-20 13:41 115 4 gusting 9
2019-Sep-20 13:30 167 3 gusting 9
2019-Sep-20 13:20 160 3 gusting 6
2019-Sep-20 13:10 238 4 gusting 7
2019-Sep-20 13:00 142 4 gusting 9
2019-Sep-20 12:50 114 3 gusting 6
2019-Sep-20 12:40 166 3 gusting 10
2019-Sep-20 12:30 163 2 gusting 6
2019-Sep-20 12:20 159 4 gusting 8
2019-Sep-20 12:10 135 4 gusting 9
2019-Sep-20 12:00 160 3 gusting 11
2019-Sep-20 11:51 162 3 gusting 6
2019-Sep-20 11:41 183 5 gusting 9
2019-Sep-20 11:31 149 3 gusting 7
2019-Sep-20 11:21 178 2 gusting 6
2019-Sep-20 11:10 158 3 gusting 6
2019-Sep-20 11:00 162 2 gusting 8
2019-Sep-20 10:50 161 2 gusting 9
2019-Sep-20 10:40 175 3 gusting 6
2019-Sep-20 10:30 164 3 gusting 6
2019-Sep-20 10:20 195 4 gusting 8
2019-Sep-20 10:10 180 2 gusting 6
2019-Sep-20 10:00 161 3 gusting 6
2019-Sep-20 09:50 155 3 gusting 6
2019-Sep-20 09:40 152 3 gusting 11
2019-Sep-20 09:31 227 2 gusting 6
2019-Sep-20 09:21 176 3 gusting 6
2019-Sep-20 09:11 180 1 gusting 4
2019-Sep-20 09:00 162 1 gusting 3
2019-Sep-20 08:50 190 2 gusting 4
2019-Sep-20 08:40 147 1 gusting 6
2019-Sep-20 08:30 172 1 gusting 4
2019-Sep-20 08:20 183 1 gusting 3
2019-Sep-20 08:10 193 1 gusting 4
2019-Sep-20 08:00 190 2 gusting 6
2019-Sep-20 07:50 135 2 gusting 4
2019-Sep-20 07:40 135 0 gusting 3
2019-Sep-20 07:30 135 1 gusting 3
2019-Sep-20 07:21 135 0 gusting 3
2019-Sep-20 07:11 135 0 gusting 3
2019-Sep-20 07:01 135 1 gusting 2
2019-Sep-20 06:50 135 0 gusting 2
2019-Sep-20 06:40 135 0 gusting 1
2019-Sep-20 06:30 135 0 gusting 1
2019-Sep-20 06:20 135
2019-Sep-20 06:10 135 0 gusting 2
2019-Sep-20 06:00 135 0 gusting 1
2019-Sep-20 05:50 135
2019-Sep-20 05:40 135 0 gusting 2
2019-Sep-20 05:30 135 0 gusting 2
2019-Sep-20 05:20 135 0 gusting 1
2019-Sep-20 05:11 135
2019-Sep-20 05:01 135
2019-Sep-20 04:51 135
2019-Sep-20 04:41
2019-Sep-20 04:30
2019-Sep-20 04:20
2019-Sep-20 04:10
2019-Sep-20 04:00
2019-Sep-20 03:50
2019-Sep-20 03:40 135
2019-Sep-20 03:30 135
2019-Sep-20 03:20 135
2019-Sep-20 03:10
2019-Sep-20 03:00 135
2019-Sep-20 02:51
2019-Sep-20 02:41
2019-Sep-20 02:31
2019-Sep-20 02:21 135
2019-Sep-20 02:10 135
2019-Sep-20 02:00
2019-Sep-20 01:50 135
2019-Sep-20 01:40
2019-Sep-20 01:30
2019-Sep-20 01:20
2019-Sep-20 01:10
2019-Sep-20 01:00
2019-Sep-20 00:50
2019-Sep-20 00:40 135
2019-Sep-20 00:31
2019-Sep-20 00:21
2019-Sep-20 00:11
2019-Sep-20 00:00
2019-Sep-19 23:50
2019-Sep-19 23:40
2019-Sep-19 23:30
2019-Sep-19 23:20 135 0 gusting 1
2019-Sep-19 23:10
2019-Sep-19 23:00
2019-Sep-19 22:50
2019-Sep-19 22:40
2019-Sep-19 22:30
2019-Sep-19 22:21
2019-Sep-19 22:11
2019-Sep-19 22:01
2019-Sep-19 21:51 135
2019-Sep-19 21:40
2019-Sep-19 21:30
2019-Sep-19 21:20
2019-Sep-19 21:10
2019-Sep-19 21:00
2019-Sep-19 20:50
2019-Sep-19 20:40
2019-Sep-19 20:30
2019-Sep-19 20:20 135
2019-Sep-19 20:11
2019-Sep-19 20:01
2019-Sep-19 19:51
2019-Sep-19 19:41
2019-Sep-19 19:30
2019-Sep-19 19:20
2019-Sep-19 19:10
2019-Sep-19 19:00
2019-Sep-19 18:50
2019-Sep-19 18:40
2019-Sep-19 18:30
2019-Sep-19 18:20
2019-Sep-19 18:10
2019-Sep-19 18:00
2019-Sep-19 17:51
2019-Sep-19 17:41
2019-Sep-19 17:31
2019-Sep-19 17:21 135 0 gusting 1
2019-Sep-19 17:10 118 0 gusting 3
2019-Sep-19 17:00 135 0 gusting 2
2019-Sep-19 16:50 135 0 gusting 3
2019-Sep-19 16:40 128 0 gusting 2
2019-Sep-19 16:30 100 1 gusting 3
2019-Sep-19 16:20 135 0 gusting 3
2019-Sep-19 16:10 135 1 gusting 3
2019-Sep-19 16:00 110 1 gusting 3
2019-Sep-19 15:50 030 0 gusting 2
2019-Sep-19 15:40 030 0 gusting 3
2019-Sep-19 15:31
2019-Sep-19 15:21 015 0 gusting 3
2019-Sep-19 15:11 024 0 gusting 1
2019-Sep-19 15:00 023
2019-Sep-19 14:50 315 0 gusting 3
2019-Sep-19 14:40 095 0 gusting 3
2019-Sep-19 14:30 190 0 gusting 2
2019-Sep-19 14:20 212 1 gusting 6
2019-Sep-19 14:10 138 0 gusting 3
2019-Sep-19 14:00 153 0 gusting 3
2019-Sep-19 13:50 176 1 gusting 3
2019-Sep-19 13:40 183 0 gusting 2
2019-Sep-19 13:30 045
2019-Sep-19 13:21 141 1 gusting 2
2019-Sep-19 13:11 171 0 gusting 3
2019-Sep-19 13:01 203 1 gusting 3
2019-Sep-19 12:51 187 1 gusting 3
2019-Sep-19 12:40 151 1 gusting 3
2019-Sep-19 12:30 146 1 gusting 3
2019-Sep-19 12:20 180 1 gusting 2
2019-Sep-19 12:10 175 1 gusting 3
2019-Sep-19 12:00 193 1 gusting 2
2019-Sep-19 11:50 198 1 gusting 3
2019-Sep-19 11:40 210 2 gusting 6
2019-Sep-19 11:30 203
2019-Sep-19 11:20 145 0 gusting 2
2019-Sep-19 11:10 144 0 gusting 3
2019-Sep-19 11:01 135 1 gusting 3
2019-Sep-19 10:51 135 1 gusting 3
2019-Sep-19 10:41 135 0 gusting 1
2019-Sep-19 10:30 135 1 gusting 3
2019-Sep-19 10:20 135 0 gusting 3
2019-Sep-19 10:10 135 0 gusting 2
2019-Sep-19 10:00 135 0 gusting 2
2019-Sep-19 09:50 135 1 gusting 3
2019-Sep-19 09:40 135 0 gusting 3
2019-Sep-19 09:30 135 0 gusting 3
2019-Sep-19 09:20 106 0 gusting 2
2019-Sep-19 09:10 135 0 gusting 2
2019-Sep-19 09:00 135
2019-Sep-19 08:51 135
2019-Sep-19 08:41 135
2019-Sep-19 08:31 135
2019-Sep-19 08:21
2019-Sep-19 08:10 135
2019-Sep-19 08:00 135 0 gusting 2
2019-Sep-19 07:50 135 0 gusting 1
2019-Sep-19 07:40 135
2019-Sep-19 07:30 135 0 gusting 1
2019-Sep-19 07:20 135 0 gusting 2
2019-Sep-19 07:10 135 0 gusting 2
2019-Sep-19 07:00 135 0 gusting 1
2019-Sep-19 06:50 135 0 gusting 2
2019-Sep-19 06:40
2019-Sep-19 06:31
2019-Sep-19 06:21
2019-Sep-19 06:11
2019-Sep-19 06:00